• Join FlightAware (Why Join?)
  • Login
  • US Flag 
05:29AM EDT


 

Airport Tracker/Info


-or-


 

Live Flight TrackerFlight Track Log ✈ N830QS ✈ 25-Jun-2013 ✈ KSBA - KSFO

Flight Track Log - Related Links

Times and Time Zones

All times are in EDT time to prevent confusion due to time zone crossing. See the N830QS flight status page for this flight to view local times or setup timezone preferences in your user account.

Time Position Orientation Groundspeed Altitude Reporting Facility
EDT Latitude Longitude Course Direction KTS MPH feet Rate Location/Type
09:00PM 34.4272 -119.8664 265° West 177 204 700  Level Los Angeles Center
09:01PM 34.4206 -119.9625 265° West 228 262 4,900 2,820 Climbing Los Angeles Center
09:03PM 34.4161 -120.0544 267° West 236 272 8,000 2,160 Climbing Los Angeles Center
09:04PM 34.4106 -120.1478 266° West 279 321 9,800 2,340 Climbing Los Angeles Center
09:05PM 34.4625 -120.2344 306° West 299 344 12,900 2,580 Climbing Los Angeles Center
09:06PM 34.5322 -120.2917 326° Northwest 301 346 15,200 1,920 Climbing Los Angeles Center
09:07PM 34.6033 -120.3458 328° Northwest 317 365 16,900 1,740 Climbing Los Angeles Center
09:08PM 34.6775 -120.4069 326° Northwest 329 379 18,800 1,740 Climbing Los Angeles Center
09:09PM 34.7606 -120.4750 326° Northwest 333 383 20,600 1,680 Climbing Los Angeles Center
09:10PM 34.8478 -120.5453 327° Northwest 343 395 22,300 1,380 Climbing Los Angeles Center
09:11PM 34.9286 -120.6111 326° Northwest 350 403 23,500 1,200 Climbing Los Angeles Center
09:12PM 35.0131 -120.6797 326° Northwest 363 418 24,900 1,200 Climbing Los Angeles Center
09:13PM 35.0967 -120.7478 326° Northwest 364 419 26,100 1,140 Climbing Los Angeles Center
09:14PM 35.1825 -120.8167 327° Northwest 368 423 27,300 900 Climbing Los Angeles Center
09:15PM 35.2881 -120.9025 326° Northwest 379 436 28,000 300 Climbing Los Angeles Center
09:16PM 35.3811 -120.9781 327° Northwest 398 458 28,000  Level Los Angeles Center
09:17PM 35.4814 -121.0514 329° Northwest 416 479 28,000  Level Los Angeles Center
09:18PM 35.5836 -121.1244 330° Northwest 424 488 28,000  Level Los Angeles Center
09:19PM 35.6603 -121.1814 329° Northwest 421 484 28,000  Level Oakland Center
09:20PM 35.7650 -121.2544 330° Northwest 431 496 28,000  Level Oakland Center
09:21PM 35.8658 -121.3292 329° Northwest 425 489 28,000  Level Oakland Center
09:22PM 35.9678 -121.4036 329° Northwest 425 489 28,000 -780 Level Oakland Center
09:23PM 36.0883 -121.4883 330° Northwest 419 482 26,500 -1,620 Descending Oakland Center
09:24PM 36.1803 -121.5547 330° Northwest 393 452 24,800 -1,680 Descending Oakland Center
09:25PM 36.2697 -121.6228 328° Northwest 382 440 23,100 -1,680 Descending Oakland Center
09:26PM 36.3614 -121.6892 330° Northwest 382 440 21,400 -1,560 Descending Oakland Center
09:27PM 36.4519 -121.7533 330° Northwest 378 435 20,000 -720 Descending Oakland Center
09:28PM 36.5375 -121.8175 329° Northwest 363 418 20,000  Level Oakland Center
09:29PM 36.6256 -121.8817 330° Northwest 365 420 20,000  Level Oakland Center
09:30PM 36.7131 -121.9461 329° Northwest 367 422 20,000 -960 Level Oakland Center
09:31PM 36.8072 -121.9856 341° North 363 418 18,100 -2,040 Descending Oakland Center
09:32PM 36.9069 -122.0100 349° North 368 423 15,900 -2,100 Descending Oakland Center
09:33PM 37.0014 -122.0339 349° North 354 407 13,800 -2,160 Descending Oakland Center
09:34PM 37.0914 -122.0792 338° Northwest 324 373 11,500 -1,680 Descending Oakland Center
09:35PM 37.1278 -122.1631 299° West 290 334 10,500 -840 Descending Oakland Center
09:36PM 37.1683 -122.2272 308° West 265 305 9,900 -600 Descending Oakland Center
09:37PM 37.2383 -122.1975 19° North 271 312 9,400 -1,020 Descending Oakland Center
09:38PM 37.3075 -122.1661 20° North 265 305 7,900 -1,620 Descending Oakland Center
09:39PM 37.3739 -122.1550 North 248 285 6,100 -1,980 Descending Oakland Center
09:40PM 37.4500 -122.1667 353° North 249 287 4,000 -1,800 Descending Northern Cal TRACON
09:41PM 37.5167 -122.1667 360° North 203 234 2,600 -720 Descending Northern Cal TRACON
09:42PM 37.5500 -122.2167 310° West 202 232 2,600 -360 Level Northern Cal TRACON
09:43PM 37.5667 -122.2667 293° West 161 185 1,900 -840 Descending Northern Cal TRACON
09:44PM 37.6000 -122.3167 310° West 149 171 1,000 -900 Descending Northern Cal TRACON
09:47PM 37.6167 -122.3667 322° Northwest  Level FlightAware Approximate
09:54PM 37.6191 -122.3752 322° Northwest  Level Estimated